createdAt,value
2018-05-21T00:02:14.102Z,25.70
2018-05-21T00:04:44.511Z,25.90
2018-05-21T00:07:15.017Z,26.10
2018-05-21T00:09:44.781Z,26.10
2018-05-21T00:12:14.375Z,26.00
2018-05-21T00:14:44.008Z,25.60
2018-05-21T00:17:13.633Z,25.70
2018-05-21T00:19:44.603Z,26.00
2018-05-21T00:22:15.154Z,26.10
2018-05-21T00:24:45.519Z,25.70
2018-05-21T00:27:15.171Z,25.70
2018-05-21T00:29:46.254Z,26.10
2018-05-21T00:32:16.514Z,26.10
2018-05-21T00:34:46.769Z,25.90
2018-05-21T00:37:17.781Z,25.90
2018-05-21T00:39:48.305Z,25.90
2018-05-21T00:42:18.580Z,26.00
2018-05-21T00:44:48.817Z,26.00
2018-05-21T00:47:19.063Z,25.60
2018-05-21T00:49:49.308Z,25.70
2018-05-21T00:52:19.724Z,26.00
2018-05-21T00:55:01.917Z,26.40
2018-05-21T00:57:32.350Z,26.30
2018-05-21T01:00:03.395Z,26.50
2018-05-21T01:02:33.713Z,26.50
2018-05-21T01:05:03.948Z,26.60
2018-05-21T01:07:34.135Z,26.60
2018-05-21T01:10:04.588Z,26.70
2018-05-21T01:12:34.849Z,26.70
2018-05-21T01:15:05.873Z,26.70
2018-05-21T01:17:36.915Z,26.80
2018-05-21T01:20:08.039Z,26.80
2018-05-21T01:22:38.464Z,26.80
2018-05-21T01:25:08.823Z,26.80
2018-05-21T01:27:39.951Z,26.90
2018-05-21T01:30:10.940Z,26.90
2018-05-21T01:32:41.219Z,26.90
2018-05-21T01:35:12.301Z,26.90
2018-05-21T01:37:42.647Z,26.90
2018-05-21T01:40:13.083Z,26.90
2018-05-21T01:42:44.170Z,27.00
2018-05-21T01:45:14.524Z,26.90
2018-05-21T01:47:44.789Z,27.00
2018-05-21T01:50:15.878Z,27.00
2018-05-21T01:52:46.239Z,27.00
2018-05-21T01:55:17.288Z,27.00
2018-05-21T01:57:47.887Z,27.00
2018-05-21T02:00:18.487Z,27.00
2018-05-21T02:02:48.125Z,27.00
2018-05-21T02:05:17.933Z,27.00
2018-05-21T02:07:47.548Z,27.00
2018-05-21T02:10:17.177Z,27.00
2018-05-21T02:12:46.938Z,27.00
2018-05-21T02:15:16.935Z,27.00
2018-05-21T02:17:46.759Z,27.00
2018-05-21T02:20:17.354Z,27.10
2018-05-21T02:22:47.192Z,27.00
2018-05-21T02:25:16.936Z,27.10
2018-05-21T02:27:47.338Z,27.10
2018-05-21T02:30:17.130Z,27.10
2018-05-21T02:32:47.579Z,27.10
2018-05-21T02:35:17.232Z,27.10
2018-05-21T02:37:46.951Z,27.10
2018-05-21T02:40:16.707Z,27.10
2018-05-21T02:42:46.456Z,27.20
2018-05-21T02:45:16.189Z,27.20
2018-05-21T02:47:45.909Z,27.20
2018-05-21T02:50:16.469Z,27.20
2018-05-21T02:52:51.160Z,27.20
2018-05-21T02:55:21.690Z,27.20
2018-05-21T02:57:51.420Z,27.20
2018-05-21T03:00:21.962Z,27.20
2018-05-21T03:02:51.760Z,27.20
2018-05-21T03:05:22.271Z,27.20
2018-05-21T03:07:52.031Z,27.20
2018-05-21T03:10:21.755Z,27.20
2018-05-21T03:12:51.469Z,27.20
2018-05-21T03:15:21.062Z,27.20
2018-05-21T03:17:50.820Z,27.20
2018-05-21T03:20:20.563Z,27.30
2018-05-21T03:22:50.166Z,27.30
2018-05-21T03:25:19.773Z,27.30
2018-05-21T03:27:49.537Z,27.30
2018-05-21T03:30:19.285Z,27.30
2018-05-21T03:32:49.833Z,27.30
2018-05-21T03:35:19.442Z,27.30
2018-05-21T03:37:49.072Z,27.30
2018-05-21T03:40:18.701Z,27.30
2018-05-21T03:42:48.449Z,27.30
2018-05-21T03:45:18.866Z,27.40
2018-05-21T03:47:49.242Z,27.40
2018-05-21T03:50:19.757Z,27.40
2018-05-21T03:52:49.484Z,27.30
2018-05-21T03:55:19.233Z,27.40
2018-05-21T03:57:48.877Z,27.40
2018-05-21T04:00:29.521Z,27.40
2018-05-21T04:06:02.765Z,27.40
2018-05-21T04:08:32.461Z,27.40
2018-05-21T04:11:02.196Z,27.40
2018-05-21T04:13:31.922Z,27.40
2018-05-21T04:16:01.555Z,27.40
2018-05-21T04:18:31.374Z,27.40
2018-05-21T04:21:01.928Z,27.40
2018-05-21T04:23:31.529Z,27.40
2018-05-21T04:26:01.954Z,27.50
2018-05-21T04:28:32.430Z,27.50
2018-05-21T04:31:02.062Z,27.40
2018-05-21T04:33:31.728Z,27.50
2018-05-21T04:36:01.555Z,27.50
2018-05-21T04:38:31.293Z,27.50
2018-05-21T04:41:00.950Z,27.50
2018-05-21T04:43:30.595Z,27.50
2018-05-21T04:46:00.242Z,27.50
2018-05-21T04:48:30.034Z,27.50
2018-05-21T04:50:59.654Z,27.50
2018-05-21T04:53:30.173Z,27.60
2018-05-21T04:56:00.920Z,27.50
2018-05-21T04:58:30.613Z,27.50
2018-05-21T05:01:01.178Z,27.60
2018-05-21T05:03:30.940Z,27.50
2018-05-21T05:06:00.746Z,27.60
2018-05-21T05:08:30.520Z,27.60
2018-05-21T05:11:00.189Z,27.60
2018-05-21T05:13:30.932Z,27.60
2018-05-21T05:16:01.657Z,27.60
2018-05-21T05:18:32.164Z,27.70
2018-05-21T05:21:01.965Z,27.70
2018-05-21T05:23:31.650Z,27.60
2018-05-21T05:26:01.323Z,27.70
2018-05-21T05:28:31.785Z,27.70
2018-05-21T05:31:02.503Z,27.70
2018-05-21T05:33:32.094Z,27.70
2018-05-21T05:36:02.651Z,27.70
2018-05-21T05:38:32.257Z,27.70
2018-05-21T05:41:02.013Z,27.70
2018-05-21T05:43:31.640Z,27.70
2018-05-21T05:46:02.227Z,27.80
2018-05-21T05:48:32.035Z,27.80
2018-05-21T05:51:01.659Z,27.80
2018-05-21T05:53:31.262Z,27.80
2018-05-21T05:56:00.880Z,27.80
2018-05-21T05:58:30.641Z,27.80
2018-05-21T06:01:00.537Z,27.80
2018-05-21T06:03:30.235Z,27.80
2018-05-21T06:06:00.723Z,27.90
2018-05-21T06:08:30.540Z,27.90
2018-05-21T06:11:00.191Z,27.90
2018-05-21T06:13:30.829Z,27.90
2018-05-21T06:16:00.500Z,27.90
2018-05-21T06:18:30.175Z,27.90
2018-05-21T06:20:59.900Z,27.90
2018-05-21T06:23:29.507Z,27.90
2018-05-21T06:25:59.388Z,27.90
2018-05-21T06:28:29.199Z,28.00
2018-05-21T06:30:58.813Z,28.00
2018-05-21T06:33:28.483Z,28.00
2018-05-21T06:35:58.989Z,28.00
2018-05-21T06:38:28.601Z,28.00
2018-05-21T06:40:58.249Z,28.00
2018-05-21T06:43:28.756Z,28.10
2018-05-21T06:45:58.350Z,28.10
2018-05-21T06:48:28.132Z,28.10
2018-05-21T06:50:57.991Z,28.10
2018-05-21T06:53:28.620Z,28.10
2018-05-21T06:55:58.276Z,28.10
2018-05-21T06:58:28.031Z,28.10
2018-05-21T07:00:57.748Z,28.10
2018-05-21T07:03:28.275Z,28.10
2018-05-21T07:05:57.876Z,28.10
2018-05-21T07:08:27.628Z,28.20
2018-05-21T07:10:57.443Z,28.20
2018-05-21T07:13:27.275Z,28.20
2018-05-21T07:15:57.019Z,28.20
2018-05-21T07:18:26.720Z,28.20
2018-05-21T07:20:56.370Z,28.20
2018-05-21T07:23:26.383Z,28.20
2018-05-21T07:25:56.891Z,28.30
2018-05-21T07:28:27.331Z,28.20
2018-05-21T07:30:57.705Z,28.30
2018-05-21T07:33:27.439Z,28.30
2018-05-21T07:35:57.198Z,28.30
2018-05-21T07:38:26.950Z,28.40
2018-05-21T07:40:56.684Z,28.40
2018-05-21T07:43:26.533Z,28.40
2018-05-21T07:45:56.205Z,28.40
2018-05-21T07:48:26.800Z,28.40
2018-05-21T07:50:56.569Z,28.40
2018-05-21T07:53:27.100Z,28.50
2018-05-21T07:55:57.470Z,28.50
2018-05-21T07:58:27.087Z,28.40
2018-05-21T08:00:56.821Z,28.50
2018-05-21T08:03:26.453Z,28.50
2018-05-21T08:05:56.144Z,28.50
2018-05-21T08:08:26.610Z,28.50
2018-05-21T08:10:56.295Z,28.50
2018-05-21T08:13:26.061Z,28.60
2018-05-21T08:15:55.832Z,28.60
2018-05-21T08:18:25.558Z,28.60
2018-05-21T08:20:55.335Z,28.60
2018-05-21T08:23:25.707Z,28.60
2018-05-21T08:25:55.443Z,28.60
2018-05-21T08:28:25.203Z,28.60
2018-05-21T08:30:54.817Z,28.60
2018-05-21T08:33:24.539Z,28.60
2018-05-21T08:35:54.282Z,28.60
2018-05-21T08:38:24.082Z,28.70
2018-05-21T08:40:53.828Z,28.70
2018-05-21T08:43:24.353Z,28.70
2018-05-21T08:45:54.817Z,28.70
2018-05-21T08:48:24.607Z,28.70
2018-05-21T08:50:54.292Z,28.70
2018-05-21T08:53:24.811Z,28.80
2018-05-21T08:55:54.571Z,28.80
2018-05-21T08:58:24.173Z,28.80
2018-05-21T09:00:53.985Z,28.80
2018-05-21T09:03:23.604Z,28.80
2018-05-21T09:05:54.218Z,28.80
2018-05-21T09:08:23.982Z,28.80
2018-05-21T09:10:53.720Z,28.80
2018-05-21T09:13:24.299Z,28.90
2018-05-21T09:15:54.132Z,28.90
2018-05-21T09:18:23.754Z,28.90
2018-05-21T09:20:53.569Z,28.90
2018-05-21T09:23:23.979Z,28.90
2018-05-21T09:25:53.588Z,28.80
2018-05-21T09:28:23.435Z,28.90
2018-05-21T09:30:53.083Z,28.90
2018-05-21T09:33:22.680Z,28.90
2018-05-21T09:35:52.341Z,28.90
2018-05-21T09:38:22.790Z,28.90
2018-05-21T09:40:52.604Z,28.90
2018-05-21T09:43:22.245Z,29.00
2018-05-21T09:45:51.865Z,29.00
2018-05-21T09:48:21.721Z,29.00
2018-05-21T09:50:51.413Z,29.00
2018-05-21T09:53:22.027Z,29.00
2018-05-21T09:55:52.630Z,29.00
2018-05-21T09:58:23.068Z,29.00
2018-05-21T10:00:56.586Z,29.10
2018-05-21T10:03:26.323Z,29.10
2018-05-21T10:05:56.756Z,29.10
2018-05-21T10:08:26.686Z,29.10
2018-05-21T10:10:56.367Z,29.10
2018-05-21T10:13:26.813Z,29.10
2018-05-21T10:15:56.436Z,29.10
2018-05-21T10:18:26.286Z,29.10
2018-05-21T10:20:56.058Z,29.10
2018-05-21T10:23:25.807Z,29.10
2018-05-21T10:25:55.487Z,29.10
2018-05-21T10:28:26.048Z,29.10
2018-05-21T10:30:55.822Z,29.10
2018-05-21T10:33:25.558Z,29.10
2018-05-21T10:35:56.123Z,29.10
2018-05-21T10:38:26.499Z,29.20
2018-05-21T10:40:56.167Z,29.20
2018-05-21T10:43:26.765Z,29.20
2018-05-21T10:45:56.464Z,29.10
2018-05-21T10:48:26.128Z,29.20
2018-05-21T10:50:56.531Z,29.20
2018-05-21T10:53:26.477Z,29.20
2018-05-21T10:55:56.245Z,29.20
2018-05-21T10:58:26.072Z,29.20
2018-05-21T11:00:56.627Z,29.20
2018-05-21T11:03:26.410Z,29.20
2018-05-21T11:05:56.219Z,29.20
2018-05-21T11:08:25.817Z,29.20
2018-05-21T11:10:55.532Z,29.20
2018-05-21T11:13:25.936Z,29.20
2018-05-21T11:15:55.535Z,29.20
2018-05-21T11:18:25.368Z,29.20
2018-05-21T11:20:55.006Z,29.20
2018-05-21T11:23:25.550Z,29.20
2018-05-21T11:25:55.195Z,29.20
2018-05-21T11:28:24.843Z,29.20
2018-05-21T11:30:54.515Z,29.20
2018-05-21T11:33:24.482Z,29.20
2018-05-21T11:35:55.074Z,29.30
2018-05-21T11:38:25.028Z,29.20
2018-05-21T11:40:55.070Z,29.30
2018-05-21T11:43:24.832Z,29.20
2018-05-21T11:45:54.492Z,29.20
2018-05-21T11:48:24.316Z,29.20
2018-05-21T11:50:53.998Z,29.20
2018-05-21T11:53:23.708Z,29.20
2018-05-21T11:55:53.715Z,29.20
2018-05-21T11:58:23.350Z,29.30
2018-05-21T12:00:53.013Z,29.30
2018-05-21T12:03:23.637Z,29.30
2018-05-21T12:05:54.034Z,29.30
2018-05-21T12:08:23.741Z,29.30
2018-05-21T12:10:53.385Z,29.30
2018-05-21T12:13:23.081Z,29.30
2018-05-21T12:15:52.736Z,29.30
2018-05-21T12:18:22.519Z,29.30
2018-05-21T12:20:53.037Z,29.30
2018-05-21T12:23:22.877Z,29.30
2018-05-21T12:25:53.309Z,29.30
2018-05-21T12:28:23.167Z,29.30
2018-05-21T12:30:52.942Z,29.30
2018-05-21T12:33:23.607Z,29.30
2018-05-21T12:35:53.237Z,29.30
2018-05-21T12:38:22.886Z,29.30
2018-05-21T12:40:52.641Z,29.30
2018-05-21T12:43:22.928Z,29.30
2018-05-21T12:45:52.677Z,29.30
2018-05-21T12:48:22.445Z,29.30
2018-05-21T12:50:52.224Z,29.30
2018-05-21T12:53:22.645Z,29.30
2018-05-21T12:55:52.444Z,29.30
2018-05-21T12:58:22.394Z,29.30
2018-05-21T13:00:52.047Z,29.30
2018-05-21T13:03:21.813Z,29.30
2018-05-21T13:05:52.355Z,29.30
2018-05-21T13:08:22.034Z,29.20
2018-05-21T13:10:51.849Z,29.30
2018-05-21T13:13:21.635Z,29.30
2018-05-21T13:15:51.286Z,29.20
2018-05-21T13:18:21.963Z,29.30
2018-05-21T13:20:51.790Z,29.30
2018-05-21T13:23:21.601Z,29.30
2018-05-21T13:25:51.296Z,29.30
2018-05-21T13:28:21.172Z,29.20
2018-05-21T13:30:51.209Z,29.30
2018-05-21T13:33:20.877Z,29.20
2018-05-21T13:35:51.343Z,29.20
2018-05-21T13:38:21.021Z,29.20
2018-05-21T13:40:51.633Z,29.20
2018-05-21T13:43:22.987Z,29.30
2018-05-21T13:45:53.593Z,29.20
2018-05-21T13:48:23.463Z,29.20
2018-05-21T13:50:53.196Z,29.20
2018-05-21T13:53:23.069Z,29.20
2018-05-21T13:55:53.640Z,29.20
2018-05-21T13:58:23.380Z,29.20
2018-05-21T14:00:53.228Z,29.20
2018-05-21T14:03:22.899Z,29.20
2018-05-21T14:05:52.951Z,29.20
2018-05-21T14:08:24.018Z,29.20
2018-05-21T14:10:53.723Z,29.20
2018-05-21T14:13:23.483Z,29.20
2018-05-21T14:15:53.259Z,29.20
2018-05-21T14:18:23.070Z,29.20
2018-05-21T14:20:52.839Z,29.20
2018-05-21T14:23:23.293Z,29.20
2018-05-21T14:25:53.082Z,29.20
2018-05-21T14:28:23.645Z,29.20
2018-05-21T14:30:53.338Z,29.20
2018-05-21T14:33:23.094Z,29.20
2018-05-21T14:35:52.882Z,29.20
2018-05-21T14:38:23.061Z,29.20
2018-05-21T14:40:53.467Z,29.20
2018-05-21T14:43:23.148Z,29.20
2018-05-21T14:45:52.778Z,29.20
2018-05-21T14:48:22.516Z,29.20
2018-05-21T14:50:53.170Z,29.20
2018-05-21T14:53:22.936Z,29.10
2018-05-21T14:55:52.749Z,29.20
2018-05-21T14:58:23.329Z,29.20
2018-05-21T15:00:53.123Z,29.20
2018-05-21T15:03:22.815Z,29.20
2018-05-21T15:05:53.333Z,29.10
2018-05-21T15:08:23.109Z,29.10
2018-05-21T15:10:52.801Z,29.10
2018-05-21T15:13:22.541Z,29.00
2018-05-21T15:15:52.346Z,29.00
2018-05-21T15:18:22.055Z,29.00
2018-05-21T15:20:51.852Z,29.10
2018-05-21T15:23:21.574Z,29.10
2018-05-21T15:25:51.196Z,29.10
2018-05-21T15:28:21.000Z,29.10
2018-05-21T15:30:50.853Z,29.10
2018-05-21T15:33:21.276Z,29.10
2018-05-21T15:35:51.828Z,29.10
2018-05-21T15:38:21.575Z,29.10
2018-05-21T15:40:51.187Z,29.10
2018-05-21T15:43:21.045Z,29.10
2018-05-21T15:45:50.891Z,29.10
2018-05-21T15:48:20.635Z,29.10
2018-05-21T15:50:50.274Z,29.10
2018-05-21T15:53:20.709Z,29.00
2018-05-21T15:55:50.514Z,29.00
2018-05-21T15:58:21.318Z,29.00
2018-05-21T16:00:52.244Z,29.00
2018-05-21T16:03:22.138Z,29.10
2018-05-21T16:05:51.872Z,29.00
2018-05-21T16:08:21.674Z,29.10
2018-05-21T16:10:51.644Z,29.00
2018-05-21T16:13:21.297Z,29.00
2018-05-21T16:15:50.982Z,28.90
2018-05-21T16:18:20.771Z,28.90
2018-05-21T16:20:50.430Z,28.80
2018-05-21T16:23:20.229Z,28.40
2018-05-21T16:25:49.993Z,28.10
2018-05-21T16:28:20.529Z,27.80
2018-05-21T16:30:50.885Z,27.50
2018-05-21T16:33:20.635Z,27.40
2018-05-21T16:35:50.375Z,27.30
2018-05-21T16:38:20.860Z,26.90
2018-05-21T16:41:56.353Z,26.90
2018-05-21T22:54:30.529Z,26.40
2018-05-21T23:01:12.750Z,26.50
2018-05-21T23:03:42.427Z,26.30
2018-05-21T23:06:12.929Z,26.40
2018-05-21T23:08:42.640Z,26.40
2018-05-21T23:11:12.252Z,26.40
2018-05-21T23:13:42.009Z,26.20
2018-05-21T23:16:11.624Z,26.30
2018-05-21T23:18:41.252Z,26.40
2018-05-21T23:21:10.886Z,26.20
2018-05-21T23:23:40.538Z,26.10
2018-05-21T23:26:10.280Z,26.20
2018-05-21T23:28:39.883Z,26.40
2018-05-21T23:31:09.489Z,26.20
2018-05-21T23:33:39.109Z,26.30
2018-05-21T23:36:08.701Z,26.40
2018-05-21T23:38:38.301Z,26.30
2018-05-21T23:41:08.060Z,26.10
2018-05-21T23:43:37.809Z,26.20
2018-05-21T23:46:07.441Z,26.40
2018-05-21T23:48:37.229Z,26.30
2018-05-21T23:51:07.001Z,26.20
2018-05-21T23:53:36.704Z,26.30
2018-05-21T23:56:06.491Z,26.50
2018-05-21T23:58:36.261Z,26.30
